createdAt,value
2022-12-20T00:01:35.162Z,-0.40
2022-12-20T00:04:02.564Z,-0.50
2022-12-20T00:06:29.417Z,-0.60
2022-12-20T00:08:56.590Z,-0.60
2022-12-20T00:11:21.075Z,-0.50
2022-12-20T00:13:47.889Z,-0.50
2022-12-20T00:16:17.816Z,-0.40
2022-12-20T00:18:43.232Z,-0.40
2022-12-20T00:21:09.211Z,-0.50
2022-12-20T00:23:36.522Z,-0.40
2022-12-20T00:26:06.016Z,-0.30
2022-12-20T00:28:30.647Z,-0.30
2022-12-20T00:30:55.774Z,-0.20
2022-12-20T00:33:20.363Z,-0.10
2022-12-20T00:35:44.723Z,-0.10
2022-12-20T00:38:09.367Z,-0.10
2022-12-20T00:40:35.661Z,0.00
2022-12-20T00:43:00.184Z,-0.20
2022-12-20T00:45:24.618Z,-0.30
2022-12-20T00:47:49.193Z,-0.40
2022-12-20T00:50:13.787Z,-0.50
2022-12-20T00:52:38.332Z,-0.60
2022-12-20T00:55:02.809Z,-0.70
2022-12-20T00:57:29.032Z,-0.70
2022-12-20T00:59:53.566Z,-0.70
2022-12-20T01:02:18.831Z,-0.80
2022-12-20T01:04:45.202Z,-0.70
2022-12-20T01:07:09.947Z,-0.70
2022-12-20T01:09:34.451Z,-0.80
2022-12-20T01:11:59.063Z,-0.70
2022-12-20T01:14:25.086Z,-0.70
2022-12-20T01:16:50.026Z,-0.80
2022-12-20T01:19:16.812Z,-0.80
2022-12-20T01:21:44.955Z,-0.70
2022-12-20T01:24:11.173Z,-0.90
2022-12-20T01:26:36.323Z,-0.80
2022-12-20T01:29:01.755Z,-0.90
2022-12-20T01:31:33.564Z,-0.70
2022-12-20T01:33:59.247Z,-0.50
2022-12-20T01:36:26.486Z,-0.50
2022-12-20T01:38:51.180Z,-0.50
2022-12-20T01:41:17.446Z,-0.50
2022-12-20T01:43:50.836Z,-0.70
2022-12-20T01:46:15.688Z,-0.80
2022-12-20T01:48:44.027Z,-0.80
2022-12-20T01:51:08.942Z,-1.00
2022-12-20T01:53:33.851Z,-1.20
2022-12-20T01:56:02.031Z,-1.30
2022-12-20T01:58:26.989Z,-1.20
2022-12-20T02:00:51.858Z,-1.10
2022-12-20T02:03:18.088Z,-1.00
2022-12-20T02:05:47.138Z,-1.10
2022-12-20T02:08:14.790Z,-1.10
2022-12-20T02:10:52.865Z,-1.10
2022-12-20T02:13:36.901Z,-1.30
2022-12-20T02:16:01.624Z,-1.20
2022-12-20T02:18:31.014Z,-1.10
2022-12-20T02:21:21.347Z,-1.00
2022-12-20T02:24:28.790Z,-1.00
2022-12-20T02:27:30.029Z,-1.00
2022-12-20T02:30:04.668Z,-1.30
2022-12-20T02:32:36.556Z,-1.40
2022-12-20T02:35:01.752Z,-1.40
2022-12-20T02:37:26.383Z,-1.30
2022-12-20T02:39:51.469Z,-1.30
2022-12-20T02:42:18.548Z,-1.20
2022-12-20T02:45:03.336Z,-1.20
2022-12-20T02:47:35.456Z,-1.20
2022-12-20T02:50:00.073Z,-1.20
2022-12-20T02:52:31.264Z,-1.20
2022-12-20T02:54:57.011Z,-1.30
2022-12-20T02:57:27.623Z,-1.30
2022-12-20T02:59:59.519Z,-1.30
2022-12-20T03:02:28.714Z,-1.30
2022-12-20T03:04:55.649Z,-1.40
2022-12-20T03:07:21.363Z,-1.30
2022-12-20T03:09:46.999Z,-1.40
2022-12-20T03:12:14.734Z,-1.30
2022-12-20T03:14:39.351Z,-1.40
2022-12-20T03:17:06.126Z,-1.40
2022-12-20T03:19:32.805Z,-1.40
2022-12-20T03:21:57.708Z,-1.40
2022-12-20T03:24:22.269Z,-1.40
2022-12-20T03:26:48.107Z,-1.50
2022-12-20T03:29:15.486Z,-1.50
2022-12-20T03:31:40.403Z,-1.40
2022-12-20T03:34:05.843Z,-1.50
2022-12-20T03:36:34.104Z,-1.40
2022-12-20T03:39:01.821Z,-1.50
2022-12-20T03:41:30.398Z,-1.50
2022-12-20T03:43:54.946Z,-1.50
2022-12-20T03:46:21.161Z,-1.50
2022-12-20T03:48:45.778Z,-1.50
2022-12-20T03:51:10.578Z,-1.50
2022-12-20T03:53:37.034Z,-1.50
2022-12-20T03:56:01.622Z,-1.40
2022-12-20T03:58:26.337Z,-1.40
2022-12-20T04:00:51.645Z,-1.40
2022-12-20T04:03:35.485Z,-1.40
2022-12-20T04:06:00.144Z,-1.40
2022-12-20T04:08:25.406Z,-1.40
2022-12-20T04:11:05.427Z,-1.30
2022-12-20T04:13:32.731Z,-1.40
2022-12-20T04:16:00.658Z,-1.30
2022-12-20T04:18:29.292Z,-1.30
2022-12-20T04:20:55.438Z,-1.30
2022-12-20T04:23:26.913Z,-1.20
2022-12-20T04:25:52.940Z,-1.20
2022-12-20T04:28:17.443Z,-1.30
2022-12-20T04:30:42.876Z,-1.30
2022-12-20T04:33:08.019Z,-1.40
2022-12-20T04:35:32.976Z,-1.30
2022-12-20T04:37:58.507Z,-1.40
2022-12-20T04:40:23.103Z,-1.40
2022-12-20T04:42:53.464Z,-1.40
2022-12-20T04:45:20.374Z,-1.30
2022-12-20T04:47:45.981Z,-1.40
2022-12-20T04:50:13.653Z,-1.30
2022-12-20T04:52:58.223Z,-1.20
2022-12-20T04:55:23.515Z,-1.20
2022-12-20T04:57:48.464Z,-1.20
2022-12-20T05:00:17.358Z,-1.20
2022-12-20T05:02:47.772Z,-1.20
2022-12-20T05:05:16.712Z,-1.30
2022-12-20T05:07:47.259Z,-1.20
2022-12-20T05:10:12.770Z,-1.20
2022-12-20T05:12:37.755Z,-1.20
2022-12-20T05:15:02.909Z,-1.20
2022-12-20T05:17:29.129Z,-1.20
2022-12-20T05:19:53.908Z,-1.20
2022-12-20T05:22:37.034Z,-1.20
2022-12-20T05:25:37.180Z,-1.20
2022-12-20T05:28:05.225Z,-1.20
2022-12-20T05:30:33.104Z,-1.10
2022-12-20T05:33:00.261Z,-1.20
2022-12-20T05:35:25.377Z,-1.10
2022-12-20T05:37:56.350Z,-1.10
2022-12-20T05:40:20.858Z,-1.10
2022-12-20T05:42:45.879Z,-1.10
2022-12-20T05:45:12.439Z,-1.00
2022-12-20T05:47:51.200Z,-1.00
2022-12-20T05:50:19.299Z,-1.00
2022-12-20T05:53:07.446Z,-0.90
2022-12-20T05:55:36.925Z,-0.90
2022-12-20T05:58:02.288Z,-0.90
2022-12-20T06:00:47.518Z,-0.80
2022-12-20T06:03:15.353Z,-0.70
2022-12-20T06:05:43.067Z,-0.60
2022-12-20T06:08:11.389Z,-0.40
2022-12-20T06:10:36.463Z,-0.20
2022-12-20T06:13:01.671Z,0.00
2022-12-20T06:15:27.185Z,0.30
2022-12-20T06:17:51.864Z,0.50
2022-12-20T06:20:16.973Z,1.00
2022-12-20T06:22:46.633Z,1.30
2022-12-20T06:25:15.239Z,1.60
2022-12-20T06:27:40.047Z,1.90
2022-12-20T06:30:10.787Z,2.10
2022-12-20T06:32:55.679Z,2.40
2022-12-20T06:35:20.514Z,2.60
2022-12-20T06:37:47.873Z,2.90
2022-12-20T06:40:14.415Z,3.00
2022-12-20T06:42:39.200Z,3.20
2022-12-20T06:45:05.398Z,3.20
2022-12-20T06:47:30.576Z,3.50
2022-12-20T06:49:56.108Z,3.70
2022-12-20T06:52:21.129Z,3.70
2022-12-20T06:54:50.184Z,3.70
2022-12-20T06:57:15.083Z,3.80
2022-12-20T06:59:41.968Z,3.80
2022-12-20T07:02:08.167Z,4.20
2022-12-20T07:04:33.881Z,4.40
2022-12-20T07:06:58.469Z,4.80
2022-12-20T07:09:23.170Z,4.80
2022-12-20T07:11:50.779Z,4.60
2022-12-20T07:14:16.560Z,4.20
2022-12-20T07:16:43.979Z,4.40
2022-12-20T07:19:08.627Z,4.40
2022-12-20T07:21:33.065Z,4.90
2022-12-20T07:23:57.805Z,5.30
2022-12-20T07:26:22.160Z,5.70
2022-12-20T07:28:48.510Z,5.90
2022-12-20T07:31:12.918Z,5.80
2022-12-20T07:33:38.922Z,6.00
2022-12-20T07:36:03.708Z,6.10
2022-12-20T07:38:28.691Z,6.00
2022-12-20T07:40:53.386Z,6.10
2022-12-20T07:43:17.887Z,6.20
2022-12-20T07:45:43.958Z,6.40
2022-12-20T07:48:13.734Z,6.30
2022-12-20T07:50:40.089Z,6.30
2022-12-20T07:53:07.609Z,6.50
2022-12-20T07:55:32.548Z,6.50
2022-12-20T07:58:03.043Z,6.20
2022-12-20T08:00:27.989Z,6.50
2022-12-20T08:03:01.112Z,6.40
2022-12-20T08:05:26.426Z,6.10
2022-12-20T08:07:56.797Z,6.10
2022-12-20T08:10:23.724Z,6.30
2022-12-20T08:12:49.982Z,6.40
2022-12-20T08:15:14.592Z,6.30
2022-12-20T08:17:39.238Z,6.40
2022-12-20T08:20:06.928Z,7.30
2022-12-20T08:22:31.369Z,7.10
2022-12-20T08:24:55.999Z,6.80
2022-12-20T08:27:20.293Z,6.80
2022-12-20T08:29:44.901Z,6.40
2022-12-20T08:32:09.331Z,6.30
2022-12-20T08:34:33.806Z,6.50
2022-12-20T08:36:59.527Z,6.60
2022-12-20T08:39:23.955Z,6.40
2022-12-20T08:41:48.403Z,6.20
2022-12-20T08:44:12.978Z,6.50
2022-12-20T08:46:38.007Z,6.30
2022-12-20T08:49:03.163Z,6.60
2022-12-20T08:51:27.581Z,6.50
2022-12-20T08:53:53.889Z,6.60
2022-12-20T08:56:20.026Z,6.40
2022-12-20T08:58:45.631Z,6.20
2022-12-20T09:01:12.495Z,5.70
2022-12-20T09:03:37.949Z,5.70
2022-12-20T09:06:02.711Z,5.80
2022-12-20T09:08:27.912Z,5.50
2022-12-20T09:10:54.325Z,5.70
2022-12-20T09:13:19.200Z,5.70
2022-12-20T09:15:45.558Z,5.80
2022-12-20T09:18:10.437Z,5.90
2022-12-20T09:20:35.248Z,6.00
2022-12-20T09:23:00.174Z,5.50
2022-12-20T09:25:25.442Z,5.60
2022-12-20T09:27:51.333Z,5.50
2022-12-20T09:30:16.379Z,5.40
2022-12-20T09:32:40.752Z,5.70
2022-12-20T09:35:05.712Z,5.40
2022-12-20T09:37:32.340Z,5.50
2022-12-20T09:39:59.140Z,5.30
2022-12-20T09:42:27.236Z,5.10
2022-12-20T09:44:54.873Z,5.20
2022-12-20T09:47:21.944Z,5.20
2022-12-20T09:49:53.506Z,5.30
2022-12-20T09:52:35.819Z,5.50
2022-12-20T09:55:12.228Z,5.30
2022-12-20T09:57:51.272Z,5.50
2022-12-20T10:00:20.799Z,5.50
2022-12-20T10:03:04.243Z,5.40
2022-12-20T10:05:41.820Z,5.60
2022-12-20T10:08:12.892Z,5.80
2022-12-20T10:10:52.723Z,6.10
2022-12-20T10:13:34.764Z,6.00
2022-12-20T10:16:19.457Z,5.70
2022-12-20T10:18:58.393Z,6.10
2022-12-20T10:21:32.215Z,6.30
2022-12-20T10:24:03.438Z,6.40
2022-12-20T10:26:28.806Z,6.10
2022-12-20T10:28:54.612Z,5.80
2022-12-20T10:31:21.065Z,5.90
2022-12-20T10:33:46.993Z,6.10
2022-12-20T10:36:24.337Z,5.90
2022-12-20T10:38:50.811Z,6.00
2022-12-20T10:41:21.961Z,5.90
2022-12-20T10:43:49.841Z,5.80
2022-12-20T10:46:16.722Z,5.60
2022-12-20T10:48:44.551Z,5.50
2022-12-20T10:51:17.336Z,5.60
2022-12-20T10:53:56.666Z,5.70
2022-12-20T10:56:23.695Z,5.50
2022-12-20T10:58:58.268Z,5.50
2022-12-20T11:01:24.774Z,5.60
2022-12-20T11:03:56.301Z,5.70
2022-12-20T11:06:22.485Z,5.80
2022-12-20T11:08:53.851Z,5.70
2022-12-20T11:11:28.697Z,5.50
2022-12-20T11:13:54.307Z,5.20
2022-12-20T11:16:35.731Z,5.30
2022-12-20T11:19:27.891Z,5.50
2022-12-20T11:22:02.818Z,5.60
2022-12-20T11:24:34.625Z,5.70
2022-12-20T11:27:24.949Z,5.70
2022-12-20T11:30:06.993Z,5.60
2022-12-20T11:32:50.873Z,5.70
2022-12-20T11:35:22.847Z,5.70
2022-12-20T11:37:57.397Z,5.70
2022-12-20T11:40:31.660Z,5.50
2022-12-20T11:43:21.735Z,5.30
2022-12-20T11:46:02.128Z,5.50
2022-12-20T11:48:53.045Z,5.50
2022-12-20T11:51:27.027Z,5.50
2022-12-20T11:53:56.601Z,5.30
2022-12-20T11:56:26.062Z,5.20
2022-12-20T11:58:54.604Z,5.20
2022-12-20T12:01:22.372Z,5.10
2022-12-20T12:04:00.492Z,5.20
2022-12-20T12:06:30.126Z,5.10
2022-12-20T12:09:01.289Z,5.00
2022-12-20T12:14:35.017Z,4.60
2022-12-20T12:17:06.778Z,4.70
2022-12-20T12:19:32.927Z,4.60
2022-12-20T12:22:07.265Z,4.50
2022-12-20T12:24:39.247Z,4.60
2022-12-20T12:27:04.036Z,4.60
2022-12-20T12:29:31.136Z,4.60
2022-12-20T12:31:59.636Z,4.60
2022-12-20T12:34:37.803Z,4.50
2022-12-20T12:37:24.868Z,4.50
2022-12-20T12:40:14.055Z,4.70
2022-12-20T12:43:09.050Z,4.60
2022-12-20T12:45:37.730Z,4.50
2022-12-20T12:48:07.761Z,4.50
2022-12-20T12:50:36.827Z,4.50
2022-12-20T12:53:09.097Z,4.50
2022-12-20T12:55:38.890Z,4.50
2022-12-20T12:58:15.537Z,4.40
2022-12-20T13:00:52.307Z,4.50
2022-12-20T13:03:18.264Z,4.60
2022-12-20T13:05:42.667Z,4.80
2022-12-20T13:08:17.831Z,4.90
2022-12-20T13:11:00.965Z,4.90
2022-12-20T13:13:25.891Z,4.80
2022-12-20T13:16:07.704Z,4.70
2022-12-20T13:18:32.698Z,4.70
2022-12-20T13:21:37.032Z,4.60
2022-12-20T13:24:38.173Z,4.50
2022-12-20T13:27:15.406Z,4.50
2022-12-20T13:29:54.069Z,4.30
2022-12-20T13:32:51.846Z,4.30
2022-12-20T13:35:31.760Z,4.20
2022-12-20T13:37:58.048Z,4.20
2022-12-20T13:40:33.221Z,4.10
2022-12-20T13:43:03.630Z,4.00
2022-12-20T13:45:29.785Z,4.00
2022-12-20T13:47:57.416Z,4.00
2022-12-20T13:50:40.706Z,4.00
2022-12-20T13:53:06.641Z,4.00
2022-12-20T13:55:37.360Z,3.90
2022-12-20T13:58:11.458Z,3.90
2022-12-20T14:00:36.114Z,3.90
2022-12-20T14:03:03.383Z,3.90
2022-12-20T14:05:33.244Z,3.90
2022-12-20T14:08:01.096Z,3.80
2022-12-20T14:10:27.683Z,3.80
2022-12-20T14:12:54.659Z,3.70
2022-12-20T14:15:29.545Z,3.70
2022-12-20T14:17:54.333Z,3.70
2022-12-20T14:20:27.391Z,3.60
2022-12-20T14:23:04.113Z,3.60
2022-12-20T14:25:33.748Z,3.50
2022-12-20T14:27:59.312Z,3.50
2022-12-20T14:30:32.501Z,3.50
2022-12-20T14:32:57.622Z,3.50
2022-12-20T14:35:22.543Z,3.70
2022-12-20T14:37:55.940Z,3.80
2022-12-20T14:40:22.497Z,3.80
2022-12-20T14:42:47.316Z,3.90
2022-12-20T14:45:20.522Z,3.80
2022-12-20T14:47:55.614Z,3.70
2022-12-20T14:50:22.159Z,3.50
2022-12-20T14:52:47.498Z,3.50
2022-12-20T14:55:18.446Z,3.50
2022-12-20T14:57:47.537Z,3.40
2022-12-20T15:00:23.597Z,3.40
2022-12-20T15:02:59.317Z,4.20
2022-12-20T15:05:46.108Z,4.30
2022-12-20T15:08:15.306Z,4.10
2022-12-20T15:10:42.349Z,4.00
2022-12-20T15:13:09.841Z,3.90
2022-12-20T15:15:34.445Z,3.80
2022-12-20T15:18:01.100Z,3.60
2022-12-20T15:20:25.582Z,3.50
2022-12-20T15:22:51.066Z,3.40
2022-12-20T15:25:17.788Z,3.30
2022-12-20T15:27:42.732Z,3.30
2022-12-20T15:30:13.035Z,3.20
2022-12-20T15:32:40.809Z,3.10
2022-12-20T15:35:17.137Z,3.10
2022-12-20T15:37:43.505Z,3.00
2022-12-20T15:40:09.383Z,3.10
2022-12-20T15:42:36.147Z,3.00
2022-12-20T15:45:01.554Z,2.90
2022-12-20T15:47:27.243Z,2.90
2022-12-20T15:49:51.968Z,3.00
2022-12-20T15:52:22.055Z,2.80
2022-12-20T15:54:47.433Z,2.80
2022-12-20T15:57:14.912Z,2.80
2022-12-20T16:02:26.130Z,2.90
2022-12-20T16:04:50.902Z,3.50
2022-12-20T16:07:15.616Z,3.60
2022-12-20T16:09:41.393Z,4.00
2022-12-20T16:12:06.607Z,3.90
2022-12-20T16:14:32.039Z,3.70
2022-12-20T16:16:56.435Z,3.50
2022-12-20T16:19:20.825Z,3.30
2022-12-20T16:21:48.846Z,3.10
2022-12-20T16:24:15.724Z,2.90
2022-12-20T16:26:44.611Z,2.90
2022-12-20T16:29:09.101Z,2.90
2022-12-20T16:31:35.120Z,2.90
2022-12-20T16:34:03.106Z,2.80
2022-12-20T16:36:27.831Z,2.70
2022-12-20T16:38:53.104Z,2.70
2022-12-20T16:41:18.970Z,2.70
2022-12-20T16:43:45.585Z,2.70
2022-12-20T16:46:13.735Z,2.60
2022-12-20T16:48:38.273Z,2.60
2022-12-20T16:51:33.641Z,2.50
2022-12-20T16:56:45.945Z,2.40
2022-12-20T16:59:22.125Z,2.40
2022-12-20T17:01:48.197Z,2.40
2022-12-20T17:04:16.530Z,2.30
2022-12-20T17:06:41.112Z,2.30
2022-12-20T17:09:05.540Z,2.30
2022-12-20T17:11:32.473Z,2.30
2022-12-20T17:13:57.941Z,2.30
2022-12-20T17:16:25.023Z,2.30
2022-12-20T17:18:51.318Z,2.30
2022-12-20T17:21:24.203Z,2.30
2022-12-20T17:23:49.384Z,2.30
2022-12-20T17:26:15.908Z,2.30
2022-12-20T17:28:40.425Z,2.30
2022-12-20T17:31:08.197Z,2.40
2022-12-20T17:33:34.335Z,2.30
2022-12-20T17:35:59.051Z,2.30
2022-12-20T17:38:23.748Z,2.30
2022-12-20T17:40:48.105Z,2.20
2022-12-20T17:43:14.182Z,2.20
2022-12-20T17:45:38.986Z,2.20
2022-12-20T17:48:03.542Z,2.10
2022-12-20T17:50:29.386Z,2.10
2022-12-20T17:52:54.784Z,2.00
2022-12-20T17:55:21.749Z,1.90
2022-12-20T17:57:46.368Z,1.90
2022-12-20T18:00:21.065Z,2.40
2022-12-20T18:22:44.525Z,2.10
2022-12-20T18:25:09.782Z,2.00
2022-12-20T18:27:38.786Z,2.10
2022-12-20T18:30:03.635Z,2.10
2022-12-20T18:32:28.115Z,2.00
2022-12-20T18:34:52.594Z,2.00
2022-12-20T18:37:17.010Z,2.10
2022-12-20T18:39:42.988Z,2.00
2022-12-20T18:42:07.896Z,2.00
2022-12-20T18:44:35.966Z,1.90
2022-12-20T18:47:02.983Z,2.00
2022-12-20T18:49:27.563Z,2.00
2022-12-20T18:51:52.008Z,1.90
2022-12-20T18:54:16.867Z,1.90
2022-12-20T18:56:42.775Z,1.80
2022-12-20T18:59:12.703Z,1.80
2022-12-20T19:01:37.801Z,1.70
2022-12-20T19:04:03.804Z,1.60
2022-12-20T19:06:28.385Z,1.50
2022-12-20T19:08:53.238Z,1.50
2022-12-20T19:11:19.980Z,1.40
2022-12-20T19:13:46.471Z,1.50
2022-12-20T19:16:14.180Z,1.40
2022-12-20T19:18:38.757Z,1.40
2022-12-20T19:21:07.573Z,1.50
2022-12-20T19:23:32.059Z,1.50
2022-12-20T19:26:05.024Z,1.50
2022-12-20T19:28:30.383Z,1.50
2022-12-20T19:30:56.512Z,1.60
2022-12-20T19:33:21.383Z,1.50
2022-12-20T19:35:55.304Z,1.50
2022-12-20T19:38:20.786Z,1.50
2022-12-20T19:40:52.106Z,1.50
2022-12-20T19:43:17.211Z,1.50
2022-12-20T19:45:41.636Z,1.50
2022-12-20T19:48:07.730Z,1.60
2022-12-20T19:50:32.344Z,1.50
2022-12-20T19:52:56.759Z,1.60
2022-12-20T19:55:21.059Z,1.50
2022-12-20T19:57:45.531Z,1.50
2022-12-20T20:00:11.196Z,1.60
2022-12-20T20:02:39.018Z,1.40
2022-12-20T20:05:09.531Z,1.40
2022-12-20T20:07:39.077Z,1.40
2022-12-20T20:10:03.590Z,1.40
2022-12-20T20:12:28.008Z,1.30
2022-12-20T20:14:53.140Z,1.30
2022-12-20T20:17:17.642Z,1.30
2022-12-20T20:19:42.720Z,1.20
2022-12-20T20:22:10.780Z,1.20
2022-12-20T20:24:36.176Z,1.20
2022-12-20T20:27:00.832Z,1.20
2022-12-20T20:29:25.135Z,1.10
2022-12-20T20:31:49.941Z,1.10
2022-12-20T20:34:14.317Z,1.00
2022-12-20T20:36:38.826Z,1.10
2022-12-20T20:39:04.941Z,1.20
2022-12-20T20:41:29.403Z,1.20
2022-12-20T20:43:53.701Z,1.20
2022-12-20T20:46:18.769Z,1.20
2022-12-20T20:48:44.007Z,1.30
2022-12-20T20:51:09.253Z,1.30
2022-12-20T20:53:34.709Z,1.30
2022-12-20T20:56:00.814Z,1.20
2022-12-20T20:58:25.764Z,1.20
2022-12-20T21:00:52.563Z,1.20
2022-12-20T21:03:17.219Z,1.20
2022-12-20T21:08:26.111Z,1.00
2022-12-20T21:10:50.954Z,1.00
2022-12-20T21:13:18.240Z,0.90
2022-12-20T21:15:43.653Z,0.90
2022-12-20T21:18:08.103Z,0.90
2022-12-20T21:20:32.398Z,0.90
2022-12-20T21:22:58.302Z,0.90
2022-12-20T21:25:22.659Z,0.90
2022-12-20T21:27:48.644Z,0.90
2022-12-20T21:30:14.948Z,1.00
2022-12-20T21:32:39.405Z,1.00
2022-12-20T21:35:03.880Z,1.10
2022-12-20T21:37:30.824Z,1.10
2022-12-20T21:39:55.526Z,0.90
2022-12-20T21:42:19.811Z,0.90
2022-12-20T21:44:44.214Z,0.80
2022-12-20T21:47:10.838Z,0.70
2022-12-20T21:49:35.254Z,0.80
2022-12-20T21:51:59.575Z,0.80
2022-12-20T21:54:24.273Z,0.90
2022-12-20T21:56:48.615Z,0.90
2022-12-20T21:59:13.206Z,0.90
2022-12-20T22:01:37.717Z,0.80
2022-12-20T22:04:05.809Z,0.70
2022-12-20T22:06:31.543Z,0.80
2022-12-20T22:08:57.755Z,1.00
2022-12-20T22:11:22.266Z,1.10
2022-12-20T22:13:47.648Z,1.20
2022-12-20T22:16:14.286Z,1.10
2022-12-20T22:18:39.202Z,1.10
2022-12-20T22:21:05.678Z,1.00
2022-12-20T22:23:30.165Z,0.90
2022-12-20T22:25:54.518Z,1.00
2022-12-20T22:28:19.054Z,0.90
2022-12-20T22:30:44.013Z,0.90
2022-12-20T22:33:08.519Z,0.90
2022-12-20T22:35:32.864Z,0.80
2022-12-20T22:37:58.625Z,0.80
2022-12-20T22:40:23.323Z,0.70
2022-12-20T22:42:47.748Z,0.60
2022-12-20T22:45:12.810Z,0.50
2022-12-20T22:47:37.631Z,0.40
2022-12-20T22:50:02.324Z,0.40
2022-12-20T22:52:27.783Z,0.50
2022-12-20T22:54:53.505Z,0.60
2022-12-20T22:57:18.254Z,0.50
2022-12-20T22:59:42.698Z,0.50
2022-12-20T23:02:07.197Z,0.40
2022-12-20T23:04:31.689Z,0.40
2022-12-20T23:06:56.092Z,0.40
2022-12-20T23:09:20.436Z,0.40
2022-12-20T23:12:03.449Z,0.30
2022-12-20T23:14:45.016Z,0.30
2022-12-20T23:17:11.358Z,0.50
2022-12-20T23:19:49.828Z,0.50
2022-12-20T23:22:31.635Z,0.30
2022-12-20T23:24:55.965Z,0.30
2022-12-20T23:27:21.696Z,0.20
2022-12-20T23:29:46.186Z,0.10
2022-12-20T23:32:10.549Z,0.10
2022-12-20T23:34:35.097Z,0.10
2022-12-20T23:36:59.569Z,0.00
2022-12-20T23:39:23.963Z,-0.10
2022-12-20T23:41:48.355Z,-0.20
2022-12-20T23:44:14.129Z,-0.20
2022-12-20T23:46:38.585Z,-0.30
2022-12-20T23:49:02.937Z,-0.40
2022-12-20T23:51:27.327Z,-0.40
2022-12-20T23:53:53.107Z,-0.50
2022-12-20T23:56:19.652Z,-0.60
2022-12-20T23:58:44.800Z,-0.60
